Time;durP1;ratioP1;P1;durP2;ratioP2;P2;SDS_P1;SDS_P2;PMS_P1;PMS_P2;Temp;Humidity;BMP_temperature;BMP_pressure;BME280_temperature;BME280_humidity;BME280_pressure;Samples;Min_cycle;Max_cycle;Signal;HPM_P1;HPM_P2
2024/02/25 00:00:05;;;;;;;12.50;7.00;;;;;;;2.60;85.01;99742.58;124458;1311;114890;-65
2024/02/25 00:08:39;;;;;;;21.40;10.40;;;;;;;2.68;85.07;99734.97;125586;1303;639473;-64
2024/02/25 00:12:44;;;;;;;16.60;9.30;;;;;;;2.69;85.25;99732.80;126794;1300;128892;-66
2024/02/25 00:16:39;;;;;;;;;;;;;;;;;;;;;
2024/02/25 00:20:31;;;;;;;18.00;10.60;;;;;;;2.74;85.91;99726.52;120298;1311;5429854;-65
2024/02/25 00:24:32;;;;;;;21.60;10.90;;;;;;;2.76;85.83;99724.00;124954;1310;114888;-65
2024/02/25 00:28:34;;;;;;;21.10;9.60;;;;;;;2.78;86.17;99726.77;124034;1319;115464;-64
2024/02/25 00:37:06;;;;;;;22.80;11.60;;;;;;;2.80;86.43;99720.52;125626;1309;639911;-66
2024/02/25 00:41:08;;;;;;;21.10;10.10;;;;;;;2.79;86.57;99719.52;128837;1281;129083;-67
2024/02/25 00:49:12;;;;;;;22.60;11.10;;;;;;;2.81;86.74;99700.24;123371;1298;5445247;-64
2024/02/25 00:53:16;;;;;;;20.80;10.90;;;;;;;2.81;86.76;99694.95;126196;1312;114952;-65
2024/02/25 01:01:31;;;;;;;27.80;13.50;;;;;;;2.82;87.17;99688.20;125489;1303;637103;-65
2024/02/25 01:05:25;;;;;;;;;;;;;;;;;;;;;
2024/02/25 01:09:23;;;;;;;28.60;16.20;;;;;;;2.81;87.09;99694.59;126953;1292;115022;-65
2024/02/25 01:13:30;;;;;;;25.20;13.60;;;;;;;2.81;87.14;99697.04;124380;1302;5430260;-65
2024/02/25 01:17:11;;;;;;;30.00;16.00;;;;;;;2.83;86.92;99694.37;124105;1311;114914;-64
2024/02/25 01:25:37;;;;;;;31.70;19.00;;;;;;;2.77;86.35;99697.33;125395;1300;638136;-67
2024/02/25 01:29:40;;;;;;;36.00;17.10;;;;;;;2.68;86.40;99695.64;128258;1296;127678;-67
2024/02/25 01:33:34;;;;;;;31.50;17.30;;;;;;;2.60;86.21;99686.86;128170;1281;114932;-64
2024/02/25 01:37:36;;;;;;;33.10;18.50;;;;;;;2.53;86.38;99679.64;121153;1293;7561114;-64
2024/02/25 01:41:27;;;;;;;;;;;;;;;;;;;;;
2024/02/25 01:45:35;;;;;;;31.30;17.50;;;;;;;2.41;86.63;99702.70;125088;1325;115074;-66
2024/02/25 01:49:36;;;;;;;28.00;17.00;;;;;;;2.33;86.82;99710.81;125177;1308;114867;-65
2024/02/25 01:57:14;;;;;;;30.40;16.20;;;;;;;2.22;86.71;99717.08;123358;1317;114933;-63
2024/02/25 02:01:09;;;;;;;;;;;;;;;;;;;;;
2024/02/25 02:05:16;;;;;;;;;;;;;;;;;;;;;
2024/02/25 02:09:20;;;;;;;31.10;16.80;;;;;;;2.04;86.77;99717.53;129027;1274;128572;-64
2024/02/25 02:13:05;;;;;;;26.50;15.80;;;;;;;1.98;86.91;99721.01;127123;1306;114858;-64
2024/02/25 02:17:07;;;;;;;;;;;;;;;;;;;;;
2024/02/25 02:21:09;;;;;;;24.60;14.50;;;;;;;1.86;86.61;99712.65;121117;1326;114935;-65
2024/02/25 02:24:48;;;;;;;29.60;16.80;;;;;;;1.81;86.60;99704.85;124583;1322;114906;-68
2024/02/25 02:33:17;;;;;;;30.10;16.90;;;;;;;1.73;87.34;99693.77;125583;1299;638997;-68
2024/02/25 02:41:14;;;;;;;;;;;;;;;;;;;;;
2024/02/25 02:44:51;;;;;;;;;;;;;;;;;;;;;
2024/02/25 02:48:57;;;;;;;32.20;17.30;;;;;;;1.67;87.83;99680.01;126955;1289;115027;-65
2024/02/25 02:52:59;;;;;;;29.40;16.40;;;;;;;1.61;87.61;99688.58;127350;1296;114855;-66
2024/02/25 03:00:47;;;;;;;28.20;16.00;;;;;;;1.47;87.37;99690.64;125385;1301;129815;-65
2024/02/25 03:04:50;;;;;;;34.10;16.90;;;;;;;1.41;87.04;99692.02;124802;1305;115045;-65
2024/02/25 03:08:42;;;;;;;;;;;;;;;;;;;;;
2024/02/25 03:12:34;;;;;;;24.90;14.50;;;;;;;1.29;86.96;99691.40;123751;1335;115018;-66
2024/02/25 03:20:47;;;;;;;29.10;18.10;;;;;;;1.20;87.04;99681.72;125553;1301;638477;-63
2024/02/25 03:24:48;;;;;;;;;;;;;;;;;;;;;
2024/02/25 03:32:56;;;;;;;;;;;;;;;;;;;;;
2024/02/25 03:36:58;;;;;;;31.80;17.60;;;;;;;1.06;87.39;99680.10;125314;1304;114936;-67
2024/02/25 03:40:59;;;;;;;27.30;15.30;;;;;;;1.02;87.56;99679.45;125123;1325;114924;-65
2024/02/25 03:44:20;;;;;;;27.60;15.40;;;;;;;1.01;87.81;99679.13;123807;1317;114980;-65
2024/02/25 03:48:05;;;;;;;;;;;;;;;;;;;;;
2024/02/25 03:56:41;;;;;;;25.70;15.60;;;;;;;1.07;89.27;99668.99;125583;1305;640177;-65
2024/02/25 04:00:30;;;;;;;24.90;15.20;;;;;;;1.11;89.14;99672.79;127515;1295;128889;-65
2024/02/25 04:04:32;;;;;;;26.20;15.50;;;;;;;1.13;89.23;99671.49;127572;1287;114957;-67
2024/02/25 04:08:38;;;;;;;25.20;14.30;;;;;;;1.14;89.15;99675.17;122058;1317;5442133;-67
2024/02/25 04:12:40;;;;;;;25.90;14.20;;;;;;;1.14;89.13;99675.88;125604;1320;114978;-70
2024/02/25 04:16:41;;;;;;;27.60;14.20;;;;;;;1.15;89.14;99675.70;124753;1327;115000;-65
2024/02/25 04:20:26;;;;;;;;;;;;;;;;;;;;;
2024/02/25 04:33:06;;;;;;;20.80;10.60;;;;;;;1.34;90.47;99675.44;127228;1284;128280;-63
2024/02/25 04:37:09;;;;;;;17.20;9.40;;;;;;;1.41;91.34;99670.03;128296;1280;114966;-64
2024/02/25 04:41:02;;;;;;;16.20;8.60;;;;;;;1.49;91.60;99657.00;122355;1297;5416910;-65
2024/02/25 04:53:31;;;;;;;28.00;14.90;;;;;;;1.69;91.51;99637.89;127102;1289;128711;-63
2024/02/25 04:57:37;;;;;;;31.80;16.80;;;;;;;1.72;91.40;99647.85;126319;1303;115262;-67
2024/02/25 05:01:36;;;;;;;26.60;14.30;;;;;;;1.71;91.36;99648.57;121761;1299;5420426;-64
2024/02/25 05:09:52;;;;;;;29.60;17.00;;;;;;;1.74;90.97;99650.64;125398;1299;638951;-66
2024/02/25 05:13:55;;;;;;;27.20;14.70;;;;;;;1.70;91.17;99653.36;127805;1295;128789;-65
2024/02/25 05:18:02;;;;;;;26.90;16.70;;;;;;;1.71;91.37;99649.65;126698;1293;114859;-62
2024/02/25 05:22:03;;;;;;;27.80;16.00;;;;;;;1.73;91.48;99656.64;122213;1313;5416076;-69
2024/02/25 05:25:46;;;;;;;31.50;17.10;;;;;;;1.75;91.72;99654.80;124788;1327;116619;-63
2024/02/25 05:29:48;;;;;;;31.80;17.80;;;;;;;1.82;91.76;99654.48;123860;1334;114884;-70
2024/02/25 05:38:23;;;;;;;32.00;18.90;;;;;;;2.02;91.86;99652.23;125450;1301;640155;-68
2024/02/25 05:42:14;;;;;;;37.10;20.50;;;;;;;2.10;91.99;99646.04;127086;1296;129150;-64
2024/02/25 05:50:19;;;;;;;35.00;20.00;;;;;;;2.18;91.99;99637.73;122513;1312;5417426;-66
2024/02/25 05:54:21;;;;;;;42.10;23.50;;;;;;;2.24;91.89;99640.05;125078;1325;114926;-70
2024/02/25 05:57:43;;;;;;;;;;;;;;;;;;;;;
2024/02/25 06:01:37;;;;;;;;;;;;;;;;;;;;;
2024/02/25 06:09:58;;;;;;;;;;;;;;;;;;;;;
2024/02/25 06:13:45;;;;;;;35.50;19.50;;;;;;;2.51;91.77;99625.39;127628;1284;128573;-68
2024/02/25 06:17:37;;;;;;;34.20;22.20;;;;;;;2.63;92.08;99620.16;126383;1291;114853;-68
2024/02/25 06:25:40;;;;;;;32.10;19.10;;;;;;;2.91;92.44;99624.30;121021;1322;115105;-64
2024/02/25 06:29:29;;;;;;;21.60;13.60;;;;;;;3.11;93.00;99622.48;123873;1336;115041;-67
2024/02/25 06:37:54;;;;;;;30.50;19.10;;;;;;;3.58;92.98;99618.55;125400;1312;637683;-65
2024/02/25 06:41:48;;;;;;;;;;;;;;;;;;;;;
2024/02/25 06:45:52;;;;;;;42.10;22.90;;;;;;;4.10;92.91;99623.05;127784;1303;114883;-66
2024/02/25 06:49:52;;;;;;;;;;;;;;;;;;;;;
2024/02/25 06:57:56;;;;;;;19.60;13.60;;;;;;;4.78;92.02;99623.50;124929;1307;114909;-65
2024/02/25 07:10:12;;;;;;;28.00;16.60;;;;;;;5.26;90.82;99612.34;127726;1283;128700;-64
2024/02/25 07:14:16;;;;;;;20.00;12.40;;;;;;;5.35;90.72;99612.35;127610;1280;115162;-68
2024/02/25 07:18:14;;;;;;;33.10;19.60;;;;;;;5.53;90.73;99605.27;122835;1292;5418686;-66
2024/02/25 07:22:04;;;;;;;28.90;17.40;;;;;;;5.70;90.24;99602.27;125868;1302;114983;-64
2024/02/25 07:26:05;;;;;;;27.90;17.00;;;;;;;5.90;89.99;99597.18;125143;1301;114961;-63
2024/02/25 07:29:58;;;;;;;;;;;;;;;;;;;;;
2024/02/25 07:34:00;;;;;;;18.80;11.90;;;;;;;6.35;89.65;99594.62;124981;1307;130706;-64
2024/02/25 07:37:50;;;;;;;30.50;16.70;;;;;;;6.56;89.28;99594.76;123505;1338;114983;-64
2024/02/25 07:41:52;;;;;;;17.80;11.30;;;;;;;6.79;89.02;99591.80;123187;1341;114969;-65
2024/02/25 07:45:54;;;;;;;24.60;14.40;;;;;;;7.09;89.18;99587.39;123012;1321;114862;-65
2024/02/25 07:54:29;;;;;;;31.70;19.30;;;;;;;7.77;88.52;99584.35;125378;1304;639093;-65
2024/02/25 07:58:32;;;;;;;30.80;19.80;;;;;;;8.08;88.06;99570.52;127406;1285;128912;-64
2024/02/25 08:06:27;;;;;;;30.40;17.40;;;;;;;8.78;87.21;99566.40;120572;1313;5456825;-65
2024/02/25 08:14:54;;;;;;;31.10;19.80;;;;;;;9.41;85.98;99549.04;126329;1304;636542;-64
2024/02/25 08:18:55;;;;;;;27.50;18.00;;;;;;;9.67;85.62;99543.27;128462;1279;128127;-65
2024/02/25 08:22:57;;;;;;;29.90;18.60;;;;;;;9.97;84.95;99537.57;128237;1284;114870;-65
2024/02/25 08:26:12;;;;;;;28.60;19.80;;;;;;;10.20;84.31;99531.23;122590;1293;5398329;-67
2024/02/25 08:30:06;;;;;;;;;;;;;;;;;;;;;
2024/02/25 08:34:39;;;;;;;31.00;21.40;;;;;;;10.47;83.42;99518.21;126269;1308;638836;-65
2024/02/25 08:38:41;;;;;;;31.10;21.90;;;;;;;10.53;82.43;99509.30;128100;1284;127724;-64
2024/02/25 08:42:42;;;;;;;25.80;17.30;;;;;;;10.46;81.20;99500.77;126086;1296;114872;-67
2024/02/25 08:46:44;;;;;;;26.10;18.00;;;;;;;10.35;80.70;99501.07;121785;1302;5434681;-65
2024/02/25 08:59:21;;;;;;;27.30;19.70;;;;;;;10.40;81.19;99486.89;126790;1310;128070;-65
2024/02/25 09:11:28;;;;;;;19.80;14.40;;;;;;;10.59;80.48;99481.61;125362;1302;115009;-66
2024/02/25 09:20:04;;;;;;;20.00;10.80;;;;;;;10.90;80.56;99485.36;125767;1303;639456;-65
2024/02/25 09:24:05;;;;;;;21.00;13.20;;;;;;;11.06;79.56;99486.45;127340;1287;128736;-65
2024/02/25 09:32:23;;;;;;;;;;;;;;;;;;;;;
2024/02/25 09:36:27;;;;;;;16.00;8.70;;;;;;;11.52;78.78;99482.42;128820;1273;127647;-66
2024/02/25 09:40:29;;;;;;;13.10;8.20;;;;;;;11.66;78.34;99482.91;128124;1303;114836;-64
2024/02/25 09:44:31;;;;;;;13.70;8.10;;;;;;;11.78;77.83;99483.15;123896;1283;5411382;-64
2024/02/25 09:48:35;;;;;;;12.60;6.90;;;;;;;11.98;77.66;99483.64;126630;1290;114907;-65
2024/02/25 09:52:36;;;;;;;12.00;7.20;;;;;;;12.16;77.26;99480.29;125967;1301;114859;-65
2024/02/25 10:05:16;;;;;;;9.10;5.70;;;;;;;12.53;75.01;99465.35;125967;1295;642429;-63
2024/02/25 10:09:25;;;;;;;6.40;4.60;;;;;;;12.60;74.77;99467.14;127986;1290;128215;-63
2024/02/25 10:13:27;;;;;;;9.50;5.90;;;;;;;12.66;74.45;99458.14;127875;1277;114866;-62
2024/02/25 10:17:50;;;;;;;;;;;;;;;;;;;;;
2024/02/25 10:25:43;;;;;;;8.30;3.60;;;;;;;12.80;73.41;99453.77;124664;1313;114886;-63
2024/02/25 10:34:16;;;;;;;;;;;;;;;;;;;;;
2024/02/25 10:37:52;;;;;;;;;;;;;;;;;;;;;
2024/02/25 10:41:56;;;;;;;7.70;4.80;;;;;;;12.97;70.96;99443.56;127164;1280;114914;-64
2024/02/25 10:54:04;;;;;;;6.70;2.80;;;;;;;12.76;69.69;99443.60;124700;1320;114949;-63
2024/02/25 10:57:43;;;;;;;8.00;2.80;;;;;;;12.62;69.63;99436.89;124248;1322;129816;-65
2024/02/25 11:01:24;;;;;;;6.40;2.90;;;;;;;12.59;69.74;99427.98;124443;1313;114960;-64
2024/02/25 11:06:00;;;;;;;5.80;3.60;;;;;;;12.61;69.20;99429.42;125751;1301;636928;-63
2024/02/25 11:10:10;;;;;;;6.50;3.80;;;;;;;12.60;69.39;99425.97;126894;1293;128485;-63
2024/02/25 11:13:54;;;;;;;5.40;2.70;;;;;;;12.73;69.85;99423.61;125641;1315;114958;-63
2024/02/25 11:22:09;;;;;;;3.80;2.80;;;;;;;13.01;69.54;99418.71;124689;1313;114927;-65
2024/02/25 11:30:02;;;;;;;7.50;3.20;;;;;;;13.38;68.55;99406.42;126076;1295;637422;-63
2024/02/25 11:37:58;;;;;;;4.90;3.10;;;;;;;13.35;66.74;99411.66;127866;1291;114826;-63
2024/02/25 11:46:02;;;;;;;6.90;3.50;;;;;;;13.35;66.81;99409.17;122093;1315;114987;-64
2024/02/25 11:50:03;;;;;;;6.60;3.10;;;;;;;13.45;67.21;99409.02;126118;1309;114829;-63
2024/02/25 11:53:23;;;;;;;;;;;;;;;;;;;;;
2024/02/25 11:56:57;;;;;;;6.00;3.10;;;;;;;13.72;67.02;99397.48;125708;1301;129288;-64
2024/02/25 12:13:34;;;;;;;5.60;2.60;;;;;;;14.00;66.20;99380.20;125725;1312;636718;-64
2024/02/25 12:22:33;;;;;;;7.80;3.00;;;;;;;14.09;65.36;99378.20;125147;1300;638706;-64
2024/02/25 12:26:08;;;;;;;4.80;2.70;;;;;;;14.13;65.47;99371.08;127891;1293;129052;-65
2024/02/25 12:30:10;;;;;;;;;;;;;;;;;;;;;
2024/02/25 12:34:13;;;;;;;7.20;2.60;;;;;;;14.19;64.59;99363.13;123227;1287;5455200;-65
2024/02/25 12:38:13;;;;;;;;;;;;;;;;;;;;;
2024/02/25 12:42:15;;;;;;;6.90;2.60;;;;;;;14.26;63.50;99350.51;124684;1311;114976;-64
2024/02/25 12:54:34;;;;;;;;;;;;;;;14.31;62.95;99340.02;127572;1283;128981;-62
2024/02/25 13:02:40;;;;;;;4.20;3.10;;;;;;;14.28;62.33;99349.29;122605;1301;5405341;-63
2024/02/25 13:10:43;;;;;;;4.10;1.60;;;;;;;14.08;61.76;99342.95;124949;1326;115596;-62
2024/02/25 13:14:45;;;;;;;4.30;2.70;;;;;;;13.98;61.62;99339.77;124136;1333;114951;-63
2024/02/25 13:23:20;;;;;;;8.40;5.50;;;;;;;14.04;62.27;99335.19;125240;1302;638773;-64
2024/02/25 13:27:23;;;;;;;7.40;4.40;;;;;;;14.01;61.70;99329.33;128446;1276;128912;-64
2024/02/25 13:31:25;;;;;;;4.80;3.70;;;;;;;13.98;61.42;99327.78;127327;1289;114954;-65
2024/02/25 13:35:29;;;;;;;9.60;6.70;;;;;;;13.99;61.66;99328.35;122771;1292;5435474;-65
2024/02/25 13:43:33;;;;;;;2.80;2.50;;;;;;;13.98;61.33;99327.38;124708;1312;114922;-62
2024/02/25 13:47:34;;;;;;;5.50;3.10;;;;;;;13.84;60.77;99327.23;124623;1322;116521;-62
2024/02/25 13:56:02;;;;;;;7.00;3.70;;;;;;;13.66;60.75;99320.88;125588;1301;637880;-63
2024/02/25 14:04:09;;;;;;;6.30;4.20;;;;;;;13.52;61.33;99319.28;126863;1288;115243;-63
2024/02/25 14:08:09;;;;;;;4.90;3.30;;;;;;;13.49;61.12;99324.34;121349;1305;5432039;-63
2024/02/25 14:16:44;;;;;;;7.60;5.90;;;;;;;13.45;61.11;99318.26;125428;1312;638491;-64
2024/02/25 14:20:51;;;;;;;11.20;4.20;;;;;;;13.34;60.87;99318.70;127975;1279;130531;-64
2024/02/25 14:24:50;;;;;;;8.60;3.90;;;;;;;13.25;61.30;99320.48;126395;1291;114933;-64
2024/02/25 14:28:51;;;;;;;5.70;2.90;;;;;;;13.24;61.61;99316.27;122061;1299;5437921;-63
2024/02/25 14:32:42;;;;;;;;;;;;;;;;;;;;;
2024/02/25 14:41:21;;;;;;;5.40;3.20;;;;;;;13.14;61.39;99314.63;125373;1313;639202;-64
2024/02/25 14:45:21;;;;;;;7.00;3.60;;;;;;;13.05;61.56;99313.70;127579;1285;128930;-64
2024/02/25 14:53:24;;;;;;;4.20;3.10;;;;;;;12.95;61.63;99298.52;121250;1305;5449394;-63
2024/02/25 14:57:25;;;;;;;6.10;3.20;;;;;;;12.89;61.66;99302.33;123918;1312;114837;-63
2024/02/25 15:06:00;;;;;;;4.80;3.10;;;;;;;12.83;62.70;99298.88;125606;1312;635987;-64
2024/02/25 15:10:02;;;;;;;12.10;3.30;;;;;;;12.76;62.34;99302.28;127260;1298;128513;-72
2024/02/25 15:14:05;;;;;;;9.30;4.30;;;;;;;12.71;62.60;99306.41;127158;1286;114887;-66
2024/02/25 15:18:06;;;;;;;7.20;3.80;;;;;;;12.62;62.85;99304.35;122534;1297;5407937;-66
2024/02/25 15:26:51;;;;;;;6.30;3.70;;;;;;;12.41;63.09;99296.40;126132;1295;636749;-66
2024/02/25 15:30:36;;;;;;;9.30;5.10;;;;;;;12.25;63.08;99294.85;129760;1264;128566;-67
2024/02/25 15:34:40;;;;;;;9.90;4.90;;;;;;;12.10;62.99;99298.65;129792;1265;115127;-64
2024/02/25 15:38:44;;;;;;;7.90;5.50;;;;;;;11.93;63.26;99303.75;125008;1268;5472129;-66
2024/02/25 15:42:45;;;;;;;8.50;5.90;;;;;;;11.78;63.46;99307.52;128280;1280;114890;-64
2024/02/25 15:46:49;;;;;;;7.60;5.30;;;;;;;11.64;63.85;99308.46;127528;1286;114976;-66
2024/02/25 15:50:50;;;;;;;13.10;7.10;;;;;;;11.53;63.97;99309.40;126328;1300;127843;-64
2024/02/25 15:54:51;;;;;;;10.20;5.80;;;;;;;11.44;64.10;99303.80;125967;1311;114927;-64
2024/02/25 16:03:27;;;;;;;11.50;7.50;;;;;;;11.26;64.50;99302.50;125965;1299;636244;-65
2024/02/25 16:07:19;;;;;;;10.10;6.30;;;;;;;11.12;65.11;99306.28;127223;1290;127855;-66
2024/02/25 16:11:24;;;;;;;9.60;5.80;;;;;;;11.01;65.62;99301.14;126305;1288;114865;-66
2024/02/25 16:15:25;;;;;;;10.80;6.40;;;;;;;10.87;65.58;99303.67;123663;1288;5446077;-64
2024/02/25 16:23:17;;;;;;;10.40;5.80;;;;;;;10.56;66.10;99309.09;125901;1311;115347;-64
2024/02/25 16:27:07;;;;;;;11.10;6.20;;;;;;;10.43;66.05;99313.55;126040;1296;128934;-66
2024/02/25 16:35:18;;;;;;;;;;;;;;;;;;;;;
2024/02/25 16:39:15;;;;;;;;;;;;;;;;;;;;;
2024/02/25 16:43:20;;;;;;;13.60;6.90;;;;;;;9.88;67.26;99312.88;128016;1292;114908;-67
2024/02/25 16:47:25;;;;;;;12.30;7.40;;;;;;;9.73;67.56;99311.80;121699;1296;6907192;-68
2024/02/25 16:51:27;;;;;;;11.30;6.30;;;;;;;9.60;68.10;99310.17;125770;1317;114965;-69
2024/02/25 16:55:28;;;;;;;12.60;7.50;;;;;;;9.46;68.45;99311.52;125320;1307;114855;-69
2024/02/25 17:04:07;;;;;;;48.00;32.40;;;;;;;9.22;68.81;99313.30;125596;1305;638651;-68
2024/02/25 17:08:09;;;;;;;21.30;11.70;;;;;;;9.08;69.13;99319.32;128339;1281;129070;-69
2024/02/25 17:12:07;;;;;;;;;;;;;;;;;;;;;
2024/02/25 17:16:00;;;;;;;28.50;15.20;;;;;;;8.88;69.69;99320.51;122866;1291;5497375;-68
2024/02/25 17:20:01;;;;;;;28.30;15.30;;;;;;;8.80;70.02;99325.19;126323;1308;114876;-65
2024/02/25 17:24:04;;;;;;;30.00;15.60;;;;;;;8.71;70.06;99321.80;126003;1302;115365;-67
2024/02/25 17:32:31;;;;;;;29.10;16.60;;;;;;;8.51;70.64;99324.70;126126;1298;637189;-67
2024/02/25 17:36:34;;;;;;;31.80;16.70;;;;;;;8.37;70.62;99324.95;128464;1291;127832;-67
2024/02/25 17:40:37;;;;;;;37.30;20.40;;;;;;;8.23;70.73;99328.55;128465;1282;115247;-68
2024/02/25 17:44:29;;;;;;;35.60;20.10;;;;;;;8.11;71.16;99328.69;123655;1303;5409130;-68
2024/02/25 17:52:14;;;;;;;38.80;22.00;;;;;;;7.86;71.62;99329.71;125172;1310;114965;-67
2024/02/25 17:56:14;;;;;;;36.70;21.70;;;;;;;7.71;71.68;99333.30;124655;1311;129783;-68
2024/02/25 18:04:49;;;;;;;48.80;25.00;;;;;;;7.45;72.33;99327.95;126044;1311;635982;-67
2024/02/25 18:08:51;;;;;;;52.50;24.20;;;;;;;7.24;72.46;99332.20;127854;1280;128019;-67
2024/02/25 18:13:15;;;;;;;45.90;24.40;;;;;;;7.06;72.53;99335.11;126897;1310;115332;-66
2024/02/25 18:16:57;;;;;;;52.20;22.90;;;;;;;6.84;72.47;99338.84;122543;1314;5405969;-67
2024/02/25 18:25:33;;;;;;;55.20;25.90;;;;;;;6.45;72.96;99338.23;126295;1298;638624;-66
2024/02/25 18:29:35;;;;;;;51.10;24.70;;;;;;;6.25;73.34;99341.50;128726;1277;128933;-67
2024/02/25 18:33:26;;;;;;;;;;;;;;;;;;;;;
2024/02/25 18:37:30;;;;;;;58.20;27.90;;;;;;;5.93;73.95;99336.20;123289;1291;5528301;-67
2024/02/25 18:41:31;;;;;;;67.70;27.40;;;;;;;5.76;74.36;99335.00;125881;1299;115048;-67
2024/02/25 18:50:06;;;;;;;56.20;25.30;;;;;;;5.54;75.05;99337.09;125622;1304;638530;-67
2024/02/25 18:54:08;;;;;;;46.70;22.60;;;;;;;5.39;75.56;99335.77;127180;1289;127956;-67
2024/02/25 18:58:12;;;;;;;48.20;23.50;;;;;;;5.27;75.65;99335.23;128082;1282;114937;-66
2024/02/25 19:02:16;;;;;;;50.00;25.70;;;;;;;5.15;75.97;99333.59;123043;1292;5433931;-67
2024/02/25 19:06:10;;;;;;;47.00;24.80;;;;;;;5.05;75.92;99330.66;125097;1307;114885;-64
2024/02/25 19:14:26;;;;;;;;;;;;;;;;;;;;;
2024/02/25 19:18:09;;;;;;;43.60;24.50;;;;;;;4.73;76.40;99324.57;128104;1301;127816;-64
2024/02/25 19:22:13;;;;;;;37.10;21.70;;;;;;;4.64;76.56;99322.48;127055;1290;114973;-66
2024/02/25 19:26:09;;;;;;;;;;;;;;;;;;;;;
2024/02/25 19:29:55;;;;;;;43.40;24.40;;;;;;;4.43;76.83;99312.33;121313;1311;115041;-65
2024/02/25 19:33:57;;;;;;;40.30;21.90;;;;;;;4.34;76.76;99310.09;125025;1329;114898;-66
2024/02/25 19:42:20;;;;;;;37.20;21.00;;;;;;;4.17;76.88;99301.18;125979;1299;638703;-66
2024/02/25 19:50:28;;;;;;;37.10;20.10;;;;;;;3.97;77.22;99303.55;127348;1289;114760;-64
2024/02/25 19:54:24;;;;;;;;;;;;;;;;;;;;;
2024/02/25 20:02:26;;;;;;;38.10;22.10;;;;;;;3.73;77.67;99309.74;125869;1299;114961;-65
2024/02/25 20:06:28;;;;;;;40.80;21.00;;;;;;;3.65;77.84;99307.90;125061;1308;129839;-64
2024/02/25 20:14:57;;;;;;;40.30;24.00;;;;;;;3.54;77.98;99302.33;126021;1295;637633;-66
2024/02/25 20:18:59;;;;;;;40.70;24.70;;;;;;;3.46;78.04;99301.92;127353;1286;128061;-66
2024/02/25 20:23:29;;;;;;;39.70;22.70;;;;;;;3.39;78.22;99301.46;126988;1294;114980;-67
2024/02/25 20:27:07;;;;;;;32.80;19.90;;;;;;;3.32;78.33;99302.04;121159;1299;6858830;-65
2024/02/25 20:35:43;;;;;;;42.20;26.10;;;;;;;3.22;78.68;99301.69;125711;1303;640189;-64
2024/02/25 20:43:48;;;;;;;37.30;22.10;;;;;;;3.09;79.28;99304.09;127773;1282;114852;-65
2024/02/25 20:56:29;;;;;;;51.20;31.50;;;;;;;3.00;80.03;99298.39;128527;1288;128044;-65
2024/02/25 21:00:31;;;;;;;52.50;28.10;;;;;;;2.97;80.38;99303.98;126888;1292;114771;-64
2024/02/25 21:04:32;;;;;;;52.30;28.20;;;;;;;2.92;80.08;99298.68;122125;1299;5432276;-64
2024/02/25 21:08:34;;;;;;;59.30;31.80;;;;;;;2.87;80.27;99297.09;125701;1304;114948;-64
2024/02/25 21:16:42;;;;;;;;;;;;;;;;;;;;;
2024/02/25 21:20:48;;;;;;;61.00;31.80;;;;;;;2.72;80.38;99276.98;128244;1280;128725;-66
2024/02/25 21:24:52;;;;;;;61.70;31.20;;;;;;;2.66;80.24;99274.20;128621;1290;114760;-66
2024/02/25 21:28:56;;;;;;;57.50;29.70;;;;;;;2.60;80.45;99268.92;123487;1292;5461410;-66
2024/02/25 21:32:48;;;;;;;55.60;31.00;;;;;;;2.55;80.48;99268.04;126142;1295;114901;-64
2024/02/25 21:36:48;;;;;;;54.20;28.80;;;;;;;2.50;80.71;99264.33;125250;1321;114959;-65
2024/02/25 21:41:14;;;;;;;59.00;31.80;;;;;;;2.46;80.67;99257.58;129151;1306;112873;-65
2024/02/25 21:44:40;;;;;;;;;;;;;;;;;;;;;
2024/02/25 21:49:13;;;;;;;66.00;37.50;;;;;;;2.47;81.32;99259.13;126250;1300;640320;-66
2024/02/25 22:01:40;;;;;;;;;;;;;;;;;;;;;
2024/02/25 22:05:37;;;;;;;53.30;29.40;;;;;;;2.39;82.07;99256.20;127967;1280;128090;-65
2024/02/25 22:09:23;;;;;;;51.60;29.70;;;;;;;2.39;81.98;99256.92;127415;1286;114927;-65
2024/02/25 22:13:24;;;;;;;57.20;26.10;;;;;;;2.37;82.01;99253.47;127551;1286;115133;-65
2024/02/25 22:17:35;;;;;;;55.80;27.90;;;;;;;2.34;82.23;99254.95;122616;1290;114933;-65
2024/02/25 22:22:00;;;;;;;52.50;27.90;;;;;;;2.34;82.43;99257.79;126087;1301;114975;-65
2024/02/25 22:29:20;;;;;;;48.70;24.60;;;;;;;2.32;82.67;99257.50;124221;1332;129657;-65
2024/02/25 22:33:18;;;;;;;;;;;;;;;;;;;;;
2024/02/25 22:45:10;;;;;;;;;;;;;;;;;;;;;
2024/02/25 22:49:12;;;;;;;;;;;;;;;;;;;;;
2024/02/25 22:53:41;;;;;;;54.90;31.40;;;;;;;2.35;83.49;99248.95;126772;1293;115041;-65
2024/02/25 22:57:16;;;;;;;52.10;28.50;;;;;;;2.31;83.34;99249.09;122153;1308;116779;-66
2024/02/25 23:01:20;;;;;;;59.60;33.30;;;;;;;2.26;83.44;99244.80;125583;1303;114886;-66
2024/02/25 23:05:17;;;;;;;;;;;;;;;;;;;;;
2024/02/25 23:09:49;;;;;;;61.70;33.50;;;;;;;2.23;83.44;99245.45;125674;1306;640110;-65
2024/02/25 23:13:52;;;;;;;66.50;33.10;;;;;;;2.17;83.09;99245.47;127850;1282;128862;-66
2024/02/25 23:17:53;;;;;;;64.00;35.80;;;;;;;2.12;83.30;99245.27;126873;1300;115346;-66
2024/02/25 23:21:57;;;;;;;74.00;36.10;;;;;;;2.07;83.90;99239.81;122675;1304;5417324;-64
2024/02/25 23:25:51;;;;;;;61.80;33.00;;;;;;;2.05;84.19;99242.85;124887;1312;114945;-65
2024/02/25 23:29:52;;;;;;;22.90;7.80;;;;;;;2.06;84.84;99246.52;124435;1310;115121;-64
2024/02/25 23:33:44;;;;;;;;;;;;;;;;;;;;;
2024/02/25 23:38:05;;;;;;;63.10;34.20;;;;;;;2.13;85.07;99250.33;126378;1296;636192;-64
2024/02/25 23:42:08;;;;;;;68.50;34.70;;;;;;;2.08;84.40;99250.50;127643;1281;128829;-65
2024/02/25 23:46:09;;;;;;;;;;;;;;;;;;;;;
2024/02/25 23:50:13;;;;;;;60.00;30.30;;;;;;;1.96;84.08;99249.28;123469;1306;5419135;-65
2024/02/25 23:54:13;;;;;;;69.20;31.80;;;;;;;1.90;83.76;99247.73;126256;1304;114846;-64
2024/02/25 23:58:11;;;;;;;;;;;;;;;;;;;;;
